sensor_id;sensor_type;location;lat;lon;timestamp;P1;durP1;ratioP1;P2;durP2;ratioP2
21235;SDS011;10775;42.678;26.324;2022-08-21T00:01:03;6.00;;;5.40;;
21235;SDS011;10775;42.678;26.324;2022-08-21T00:03:31;6.65;;;5.30;;
21235;SDS011;10775;42.678;26.324;2022-08-21T00:05:57;7.00;;;5.18;;
21235;SDS011;10775;42.678;26.324;2022-08-21T00:08:23;6.72;;;5.82;;
21235;SDS011;10775;42.678;26.324;2022-08-21T00:10:49;5.68;;;5.15;;
21235;SDS011;10775;42.678;26.324;2022-08-21T00:13:15;5.90;;;5.30;;
21235;SDS011;10775;42.678;26.324;2022-08-21T00:15:42;5.80;;;5.30;;
21235;SDS011;10775;42.678;26.324;2022-08-21T00:18:09;5.35;;;4.88;;
21235;SDS011;10775;42.678;26.324;2022-08-21T00:20:35;5.80;;;5.28;;
21235;SDS011;10775;42.678;26.324;2022-08-21T00:23:01;5.70;;;5.20;;
21235;SDS011;10775;42.678;26.324;2022-08-21T00:25:27;6.32;;;5.68;;
21235;SDS011;10775;42.678;26.324;2022-08-21T00:27:53;5.38;;;4.88;;
21235;SDS011;10775;42.678;26.324;2022-08-21T00:30:20;5.72;;;5.18;;
21235;SDS011;10775;42.678;26.324;2022-08-21T00:32:47;6.10;;;5.50;;
21235;SDS011;10775;42.678;26.324;2022-08-21T00:35:14;6.18;;;5.57;;
21235;SDS011;10775;42.678;26.324;2022-08-21T00:37:42;6.18;;;5.55;;
21235;SDS011;10775;42.678;26.324;2022-08-21T00:40:09;6.70;;;4.68;;
21235;SDS011;10775;42.678;26.324;2022-08-21T00:45:04;7.05;;;5.35;;
21235;SDS011;10775;42.678;26.324;2022-08-21T00:47:32;5.50;;;4.78;;
21235;SDS011;10775;42.678;26.324;2022-08-21T00:49:57;6.22;;;5.65;;
21235;SDS011;10775;42.678;26.324;2022-08-21T00:52:24;6.60;;;5.40;;
21235;SDS011;10775;42.678;26.324;2022-08-21T00:54:53;6.07;;;5.47;;
21235;SDS011;10775;42.678;26.324;2022-08-21T00:57:21;5.55;;;5.05;;
21235;SDS011;10775;42.678;26.324;2022-08-21T00:59:51;6.85;;;5.43;;
21235;SDS011;10775;42.678;26.324;2022-08-21T01:02:19;5.60;;;5.00;;
21235;SDS011;10775;42.678;26.324;2022-08-21T01:04:45;5.75;;;5.10;;
21235;SDS011;10775;42.678;26.324;2022-08-21T01:07:11;6.18;;;5.30;;
21235;SDS011;10775;42.678;26.324;2022-08-21T01:09:37;6.03;;;5.45;;
21235;SDS011;10775;42.678;26.324;2022-08-21T01:12:04;5.63;;;5.10;;
21235;SDS011;10775;42.678;26.324;2022-08-21T01:14:30;7.07;;;5.35;;
21235;SDS011;10775;42.678;26.324;2022-08-21T01:16:56;5.15;;;4.70;;
21235;SDS011;10775;42.678;26.324;2022-08-21T01:19:24;6.15;;;5.55;;
21235;SDS011;10775;42.678;26.324;2022-08-21T01:21:52;5.95;;;4.93;;
21235;SDS011;10775;42.678;26.324;2022-08-21T01:24:19;6.43;;;5.07;;
21235;SDS011;10775;42.678;26.324;2022-08-21T01:26:45;6.32;;;5.28;;
21235;SDS011;10775;42.678;26.324;2022-08-21T01:29:13;5.97;;;5.38;;
21235;SDS011;10775;42.678;26.324;2022-08-21T01:32:03;6.45;;;5.25;;
21235;SDS011;10775;42.678;26.324;2022-08-21T01:34:33;7.18;;;5.57;;
21235;SDS011;10775;42.678;26.324;2022-08-21T01:37:01;6.40;;;5.60;;
21235;SDS011;10775;42.678;26.324;2022-08-21T01:39:28;5.32;;;4.82;;
21235;SDS011;10775;42.678;26.324;2022-08-21T01:41:54;5.70;;;5.15;;
21235;SDS011;10775;42.678;26.324;2022-08-21T01:44:21;6.20;;;5.60;;
21235;SDS011;10775;42.678;26.324;2022-08-21T01:46:47;6.93;;;5.80;;
21235;SDS011;10775;42.678;26.324;2022-08-21T01:49:13;5.43;;;4.93;;
21235;SDS011;10775;42.678;26.324;2022-08-21T01:51:40;6.78;;;5.75;;
21235;SDS011;10775;42.678;26.324;2022-08-21T01:54:06;6.35;;;5.70;;
21235;SDS011;10775;42.678;26.324;2022-08-21T01:56:35;7.75;;;5.50;;
21235;SDS011;10775;42.678;26.324;2022-08-21T01:59:03;6.97;;;5.68;;
21235;SDS011;10775;42.678;26.324;2022-08-21T02:01:28;6.75;;;5.60;;
21235;SDS011;10775;42.678;26.324;2022-08-21T02:03:54;6.75;;;5.82;;
21235;SDS011;10775;42.678;26.324;2022-08-21T02:06:20;7.53;;;5.45;;
21235;SDS011;10775;42.678;26.324;2022-08-21T02:08:46;7.00;;;5.03;;
21235;SDS011;10775;42.678;26.324;2022-08-21T02:11:12;6.32;;;5.72;;
21235;SDS011;10775;42.678;26.324;2022-08-21T02:13:37;6.18;;;5.43;;
21235;SDS011;10775;42.678;26.324;2022-08-21T02:16:03;6.25;;;5.50;;
21235;SDS011;10775;42.678;26.324;2022-08-21T02:18:29;8.18;;;5.25;;
21235;SDS011;10775;42.678;26.324;2022-08-21T02:20:55;8.27;;;5.30;;
21235;SDS011;10775;42.678;26.324;2022-08-21T02:23:20;7.95;;;5.70;;
21235;SDS011;10775;42.678;26.324;2022-08-21T02:25:46;5.53;;;5.03;;
21235;SDS011;10775;42.678;26.324;2022-08-21T02:28:13;6.00;;;5.50;;
21235;SDS011;10775;42.678;26.324;2022-08-21T02:30:41;5.95;;;5.35;;
21235;SDS011;10775;42.678;26.324;2022-08-21T02:33:11;6.88;;;5.70;;
21235;SDS011;10775;42.678;26.324;2022-08-21T02:35:38;5.78;;;4.97;;
21235;SDS011;10775;42.678;26.324;2022-08-21T02:38:12;6.32;;;5.70;;
21235;SDS011;10775;42.678;26.324;2022-08-21T02:40:42;6.22;;;5.63;;
21235;SDS011;10775;42.678;26.324;2022-08-21T02:43:10;6.65;;;5.93;;
21235;SDS011;10775;42.678;26.324;2022-08-21T02:45:36;6.75;;;5.43;;
21235;SDS011;10775;42.678;26.324;2022-08-21T02:48:04;6.95;;;5.93;;
21235;SDS011;10775;42.678;26.324;2022-08-21T02:50:35;6.72;;;5.53;;
21235;SDS011;10775;42.678;26.324;2022-08-21T02:53:02;5.60;;;5.00;;
21235;SDS011;10775;42.678;26.324;2022-08-21T02:55:29;5.82;;;5.25;;
21235;SDS011;10775;42.678;26.324;2022-08-21T02:57:56;4.93;;;4.40;;
21235;SDS011;10775;42.678;26.324;2022-08-21T03:00:23;8.05;;;6.00;;
21235;SDS011;10775;42.678;26.324;2022-08-21T03:02:51;7.00;;;5.22;;
21235;SDS011;10775;42.678;26.324;2022-08-21T03:05:18;5.93;;;5.35;;
21235;SDS011;10775;42.678;26.324;2022-08-21T03:07:45;8.60;;;5.72;;
21235;SDS011;10775;42.678;26.324;2022-08-21T03:10:12;7.30;;;5.47;;
21235;SDS011;10775;42.678;26.324;2022-08-21T03:12:39;5.80;;;5.05;;
21235;SDS011;10775;42.678;26.324;2022-08-21T03:15:08;6.25;;;5.43;;
21235;SDS011;10775;42.678;26.324;2022-08-21T03:17:36;5.57;;;5.07;;
21235;SDS011;10775;42.678;26.324;2022-08-21T03:20:03;10.05;;;6.05;;
21235;SDS011;10775;42.678;26.324;2022-08-21T03:22:31;6.40;;;5.73;;
21235;SDS011;10775;42.678;26.324;2022-08-21T03:24:57;6.25;;;5.65;;
21235;SDS011;10775;42.678;26.324;2022-08-21T03:27:24;6.85;;;5.15;;
21235;SDS011;10775;42.678;26.324;2022-08-21T03:29:51;6.43;;;5.55;;
21235;SDS011;10775;42.678;26.324;2022-08-21T03:32:18;5.28;;;4.78;;
21235;SDS011;10775;42.678;26.324;2022-08-21T03:34:44;7.00;;;5.55;;
21235;SDS011;10775;42.678;26.324;2022-08-21T03:37:10;5.75;;;5.15;;
21235;SDS011;10775;42.678;26.324;2022-08-21T03:39:36;8.18;;;5.68;;
21235;SDS011;10775;42.678;26.324;2022-08-21T03:42:02;7.35;;;5.80;;
21235;SDS011;10775;42.678;26.324;2022-08-21T03:44:30;6.50;;;5.40;;
21235;SDS011;10775;42.678;26.324;2022-08-21T03:46:56;6.97;;;5.90;;
21235;SDS011;10775;42.678;26.324;2022-08-21T03:49:22;6.65;;;5.28;;
21235;SDS011;10775;42.678;26.324;2022-08-21T03:51:48;6.07;;;5.47;;
21235;SDS011;10775;42.678;26.324;2022-08-21T03:54:14;6.53;;;5.47;;
21235;SDS011;10775;42.678;26.324;2022-08-21T03:56:40;7.45;;;5.55;;
21235;SDS011;10775;42.678;26.324;2022-08-21T03:59:05;5.93;;;5.25;;
21235;SDS011;10775;42.678;26.324;2022-08-21T04:01:31;7.00;;;5.72;;
21235;SDS011;10775;42.678;26.324;2022-08-21T04:03:57;7.07;;;5.80;;
21235;SDS011;10775;42.678;26.324;2022-08-21T04:06:23;6.78;;;5.72;;
21235;SDS011;10775;42.678;26.324;2022-08-21T04:08:51;8.10;;;5.80;;
21235;SDS011;10775;42.678;26.324;2022-08-21T04:11:16;8.73;;;6.20;;
21235;SDS011;10775;42.678;26.324;2022-08-21T04:13:42;6.65;;;5.80;;
21235;SDS011;10775;42.678;26.324;2022-08-21T04:16:07;6.68;;;5.90;;
21235;SDS011;10775;42.678;26.324;2022-08-21T04:18:33;7.18;;;5.40;;
21235;SDS011;10775;42.678;26.324;2022-08-21T04:20:59;5.90;;;5.18;;
21235;SDS011;10775;42.678;26.324;2022-08-21T04:23:26;7.53;;;6.00;;
21235;SDS011;10775;42.678;26.324;2022-08-21T04:25:53;6.72;;;5.93;;
21235;SDS011;10775;42.678;26.324;2022-08-21T04:28:21;6.68;;;5.47;;
21235;SDS011;10775;42.678;26.324;2022-08-21T04:30:47;7.05;;;5.53;;
21235;SDS011;10775;42.678;26.324;2022-08-21T04:33:13;9.32;;;6.57;;
21235;SDS011;10775;42.678;26.324;2022-08-21T04:35:39;5.57;;;5.07;;
21235;SDS011;10775;42.678;26.324;2022-08-21T04:38:04;6.28;;;5.68;;
21235;SDS011;10775;42.678;26.324;2022-08-21T04:40:30;6.95;;;5.60;;
21235;SDS011;10775;42.678;26.324;2022-08-21T04:43:06;6.60;;;5.88;;
21235;SDS011;10775;42.678;26.324;2022-08-21T04:45:37;9.30;;;6.20;;
21235;SDS011;10775;42.678;26.324;2022-08-21T04:48:06;9.13;;;8.00;;
21235;SDS011;10775;42.678;26.324;2022-08-21T04:50:50;8.37;;;6.37;;
21235;SDS011;10775;42.678;26.324;2022-08-21T04:56:23;7.82;;;6.50;;
21235;SDS011;10775;42.678;26.324;2022-08-21T04:58:54;7.82;;;6.93;;
21235;SDS011;10775;42.678;26.324;2022-08-21T05:01:22;7.18;;;5.70;;
21235;SDS011;10775;42.678;26.324;2022-08-21T05:03:50;8.00;;;6.65;;
21235;SDS011;10775;42.678;26.324;2022-08-21T05:06:20;8.80;;;6.43;;
21235;SDS011;10775;42.678;26.324;2022-08-21T05:08:47;8.00;;;6.28;;
21235;SDS011;10775;42.678;26.324;2022-08-21T05:11:17;6.43;;;5.50;;
21235;SDS011;10775;42.678;26.324;2022-08-21T05:13:43;7.55;;;6.70;;
21235;SDS011;10775;42.678;26.324;2022-08-21T05:16:08;6.35;;;5.70;;
21235;SDS011;10775;42.678;26.324;2022-08-21T05:18:34;7.72;;;5.53;;
21235;SDS011;10775;42.678;26.324;2022-08-21T05:21:00;8.43;;;7.40;;
21235;SDS011;10775;42.678;26.324;2022-08-21T05:23:26;8.20;;;6.72;;
21235;SDS011;10775;42.678;26.324;2022-08-21T05:25:52;7.80;;;7.00;;
21235;SDS011;10775;42.678;26.324;2022-08-21T05:28:18;9.43;;;7.18;;
21235;SDS011;10775;42.678;26.324;2022-08-21T05:30:44;9.40;;;7.68;;
21235;SDS011;10775;42.678;26.324;2022-08-21T05:33:10;9.82;;;7.80;;
21235;SDS011;10775;42.678;26.324;2022-08-21T05:35:37;10.43;;;7.15;;
21235;SDS011;10775;42.678;26.324;2022-08-21T05:38:03;7.03;;;6.32;;
21235;SDS011;10775;42.678;26.324;2022-08-21T05:40:29;9.93;;;7.82;;
21235;SDS011;10775;42.678;26.324;2022-08-21T05:42:56;6.95;;;5.85;;
21235;SDS011;10775;42.678;26.324;2022-08-21T05:45:23;15.70;;;12.45;;
21235;SDS011;10775;42.678;26.324;2022-08-21T05:47:50;9.48;;;8.15;;
21235;SDS011;10775;42.678;26.324;2022-08-21T05:50:15;9.65;;;8.50;;
21235;SDS011;10775;42.678;26.324;2022-08-21T05:52:41;9.40;;;7.90;;
21235;SDS011;10775;42.678;26.324;2022-08-21T05:55:07;10.02;;;7.90;;
21235;SDS011;10775;42.678;26.324;2022-08-21T05:57:32;7.90;;;6.75;;
21235;SDS011;10775;42.678;26.324;2022-08-21T05:59:58;10.80;;;7.45;;
21235;SDS011;10775;42.678;26.324;2022-08-21T06:02:24;9.65;;;7.57;;
21235;SDS011;10775;42.678;26.324;2022-08-21T06:04:49;8.80;;;7.22;;
21235;SDS011;10775;42.678;26.324;2022-08-21T06:07:15;9.73;;;7.13;;
21235;SDS011;10775;42.678;26.324;2022-08-21T06:09:41;8.82;;;7.53;;
21235;SDS011;10775;42.678;26.324;2022-08-21T06:12:08;9.55;;;7.03;;
21235;SDS011;10775;42.678;26.324;2022-08-21T06:14:36;7.00;;;6.17;;
21235;SDS011;10775;42.678;26.324;2022-08-21T06:17:07;9.95;;;7.35;;
21235;SDS011;10775;42.678;26.324;2022-08-21T06:19:36;7.57;;;6.80;;
21235;SDS011;10775;42.678;26.324;2022-08-21T06:22:02;7.88;;;6.95;;
21235;SDS011;10775;42.678;26.324;2022-08-21T06:24:28;10.02;;;7.00;;
21235;SDS011;10775;42.678;26.324;2022-08-21T06:26:54;7.82;;;6.40;;
21235;SDS011;10775;42.678;26.324;2022-08-21T06:29:20;9.05;;;8.13;;
21235;SDS011;10775;42.678;26.324;2022-08-21T06:31:46;8.63;;;6.20;;
21235;SDS011;10775;42.678;26.324;2022-08-21T06:34:13;7.85;;;6.90;;
21235;SDS011;10775;42.678;26.324;2022-08-21T06:36:39;10.38;;;7.65;;
21235;SDS011;10775;42.678;26.324;2022-08-21T06:39:04;8.40;;;7.45;;
21235;SDS011;10775;42.678;26.324;2022-08-21T06:41:30;8.32;;;7.20;;
21235;SDS011;10775;42.678;26.324;2022-08-21T06:43:56;9.57;;;7.65;;
21235;SDS011;10775;42.678;26.324;2022-08-21T06:46:26;8.48;;;7.03;;
21235;SDS011;10775;42.678;26.324;2022-08-21T06:48:54;7.82;;;6.75;;
21235;SDS011;10775;42.678;26.324;2022-08-21T06:51:21;9.25;;;7.40;;
21235;SDS011;10775;42.678;26.324;2022-08-21T06:53:47;8.20;;;6.57;;
21235;SDS011;10775;42.678;26.324;2022-08-21T06:56:13;8.57;;;7.38;;
21235;SDS011;10775;42.678;26.324;2022-08-21T06:58:39;12.52;;;8.57;;
21235;SDS011;10775;42.678;26.324;2022-08-21T07:01:05;9.00;;;6.60;;
21235;SDS011;10775;42.678;26.324;2022-08-21T07:03:35;11.13;;;8.55;;
21235;SDS011;10775;42.678;26.324;2022-08-21T07:06:03;10.15;;;8.25;;
21235;SDS011;10775;42.678;26.324;2022-08-21T07:08:29;12.25;;;8.90;;
21235;SDS011;10775;42.678;26.324;2022-08-21T07:10:56;7.47;;;6.70;;
21235;SDS011;10775;42.678;26.324;2022-08-21T07:13:25;8.43;;;7.45;;
21235;SDS011;10775;42.678;26.324;2022-08-21T07:15:51;10.13;;;7.15;;
21235;SDS011;10775;42.678;26.324;2022-08-21T07:18:17;10.02;;;7.88;;
21235;SDS011;10775;42.678;26.324;2022-08-21T07:20:43;10.13;;;7.53;;
21235;SDS011;10775;42.678;26.324;2022-08-21T07:23:10;7.95;;;7.07;;
21235;SDS011;10775;42.678;26.324;2022-08-21T07:25:39;8.50;;;7.00;;
21235;SDS011;10775;42.678;26.324;2022-08-21T07:28:05;13.82;;;8.82;;
21235;SDS011;10775;42.678;26.324;2022-08-21T07:30:31;8.32;;;6.55;;
21235;SDS011;10775;42.678;26.324;2022-08-21T07:32:57;7.93;;;7.13;;
21235;SDS011;10775;42.678;26.324;2022-08-21T07:35:22;12.80;;;8.63;;
21235;SDS011;10775;42.678;26.324;2022-08-21T07:37:49;7.72;;;6.88;;
21235;SDS011;10775;42.678;26.324;2022-08-21T07:40:15;9.30;;;6.55;;
21235;SDS011;10775;42.678;26.324;2022-08-21T07:42:46;7.97;;;6.97;;
21235;SDS011;10775;42.678;26.324;2022-08-21T07:45:15;12.00;;;8.63;;
21235;SDS011;10775;42.678;26.324;2022-08-21T07:47:41;7.80;;;7.00;;
21235;SDS011;10775;42.678;26.324;2022-08-21T07:50:07;9.55;;;6.80;;
21235;SDS011;10775;42.678;26.324;2022-08-21T07:52:33;7.93;;;7.13;;
21235;SDS011;10775;42.678;26.324;2022-08-21T07:54:59;10.98;;;7.38;;
21235;SDS011;10775;42.678;26.324;2022-08-21T07:57:25;8.00;;;7.20;;
21235;SDS011;10775;42.678;26.324;2022-08-21T07:59:50;9.73;;;7.43;;
21235;SDS011;10775;42.678;26.324;2022-08-21T08:02:23;11.50;;;8.48;;
21235;SDS011;10775;42.678;26.324;2022-08-21T08:04:53;9.02;;;6.80;;
21235;SDS011;10775;42.678;26.324;2022-08-21T08:07:19;9.45;;;7.95;;
21235;SDS011;10775;42.678;26.324;2022-08-21T08:09:44;10.05;;;8.63;;
21235;SDS011;10775;42.678;26.324;2022-08-21T08:12:10;11.75;;;8.40;;
21235;SDS011;10775;42.678;26.324;2022-08-21T08:14:36;9.27;;;7.30;;
21235;SDS011;10775;42.678;26.324;2022-08-21T08:17:02;12.60;;;7.68;;
21235;SDS011;10775;42.678;26.324;2022-08-21T08:19:27;10.75;;;7.22;;
21235;SDS011;10775;42.678;26.324;2022-08-21T08:21:53;12.15;;;6.88;;
21235;SDS011;10775;42.678;26.324;2022-08-21T08:24:19;9.57;;;6.43;;
21235;SDS011;10775;42.678;26.324;2022-08-21T08:26:45;13.05;;;9.20;;
21235;SDS011;10775;42.678;26.324;2022-08-21T08:29:11;8.10;;;6.72;;
21235;SDS011;10775;42.678;26.324;2022-08-21T08:31:37;10.68;;;7.43;;
21235;SDS011;10775;42.678;26.324;2022-08-21T08:34:03;8.52;;;6.82;;
21235;SDS011;10775;42.678;26.324;2022-08-21T08:36:36;8.93;;;6.75;;
21235;SDS011;10775;42.678;26.324;2022-08-21T08:39:02;7.75;;;6.72;;
21235;SDS011;10775;42.678;26.324;2022-08-21T08:41:29;8.77;;;6.65;;
21235;SDS011;10775;42.678;26.324;2022-08-21T08:44:02;10.02;;;6.82;;
21235;SDS011;10775;42.678;26.324;2022-08-21T08:49:02;8.50;;;6.57;;
21235;SDS011;10775;42.678;26.324;2022-08-21T08:51:40;7.70;;;6.82;;
21235;SDS011;10775;42.678;26.324;2022-08-21T08:54:13;10.45;;;7.28;;
21235;SDS011;10775;42.678;26.324;2022-08-21T08:56:44;13.25;;;7.72;;
21235;SDS011;10775;42.678;26.324;2022-08-21T08:59:21;12.52;;;7.93;;
21235;SDS011;10775;42.678;26.324;2022-08-21T09:01:52;21.90;;;10.35;;
21235;SDS011;10775;42.678;26.324;2022-08-21T09:04:21;19.33;;;10.43;;
21235;SDS011;10775;42.678;26.324;2022-08-21T09:12:10;15.85;;;8.35;;
21235;SDS011;10775;42.678;26.324;2022-08-21T09:18:01;14.23;;;7.85;;
21235;SDS011;10775;42.678;26.324;2022-08-21T09:26:25;9.77;;;7.43;;
21235;SDS011;10775;42.678;26.324;2022-08-21T09:28:56;11.93;;;7.88;;
21235;SDS011;10775;42.678;26.324;2022-08-21T09:31:30;6.55;;;5.85;;
21235;SDS011;10775;42.678;26.324;2022-08-21T09:34:02;10.60;;;7.28;;
21235;SDS011;10775;42.678;26.324;2022-08-21T09:36:36;12.48;;;8.40;;
21235;SDS011;10775;42.678;26.324;2022-08-21T09:39:02;19.10;;;10.07;;
21235;SDS011;10775;42.678;26.324;2022-08-21T09:41:31;13.60;;;7.88;;
21235;SDS011;10775;42.678;26.324;2022-08-21T09:43:57;8.80;;;7.30;;
21235;SDS011;10775;42.678;26.324;2022-08-21T09:46:24;12.18;;;8.82;;
21235;SDS011;10775;42.678;26.324;2022-08-21T09:48:53;16.10;;;9.55;;
21235;SDS011;10775;42.678;26.324;2022-08-21T09:51:24;9.63;;;7.22;;
21235;SDS011;10775;42.678;26.324;2022-08-21T09:53:55;10.10;;;7.00;;
21235;SDS011;10775;42.678;26.324;2022-08-21T09:56:39;17.23;;;9.07;;
21235;SDS011;10775;42.678;26.324;2022-08-21T09:59:36;12.77;;;6.88;;
21235;SDS011;10775;42.678;26.324;2022-08-21T10:02:25;10.82;;;7.65;;
21235;SDS011;10775;42.678;26.324;2022-08-21T10:04:53;9.93;;;6.55;;
21235;SDS011;10775;42.678;26.324;2022-08-21T10:07:24;12.88;;;7.20;;
21235;SDS011;10775;42.678;26.324;2022-08-21T10:10:02;8.07;;;6.70;;
21235;SDS011;10775;42.678;26.324;2022-08-21T10:15:23;14.77;;;6.82;;
21235;SDS011;10775;42.678;26.324;2022-08-21T10:20:42;6.90;;;6.20;;
21235;SDS011;10775;42.678;26.324;2022-08-21T10:29:06;9.45;;;6.70;;
21235;SDS011;10775;42.678;26.324;2022-08-21T10:34:36;10.18;;;6.85;;
21235;SDS011;10775;42.678;26.324;2022-08-21T10:37:31;8.57;;;7.10;;
21235;SDS011;10775;42.678;26.324;2022-08-21T10:40:18;9.45;;;7.00;;
21235;SDS011;10775;42.678;26.324;2022-08-21T10:42:58;9.85;;;7.05;;
21235;SDS011;10775;42.678;26.324;2022-08-21T10:45:45;10.05;;;8.18;;
21235;SDS011;10775;42.678;26.324;2022-08-21T10:48:19;14.75;;;9.15;;
21235;SDS011;10775;42.678;26.324;2022-08-21T10:51:13;13.40;;;8.63;;
21235;SDS011;10775;42.678;26.324;2022-08-21T10:53:50;13.05;;;9.10;;
21235;SDS011;10775;42.678;26.324;2022-08-21T10:57:02;12.73;;;9.13;;
21235;SDS011;10775;42.678;26.324;2022-08-21T10:59:57;8.32;;;6.30;;
21235;SDS011;10775;42.678;26.324;2022-08-21T11:03:11;9.30;;;7.20;;
21235;SDS011;10775;42.678;26.324;2022-08-21T11:08:06;10.23;;;7.00;;
21235;SDS011;10775;42.678;26.324;2022-08-21T11:19:10;8.32;;;7.10;;
21235;SDS011;10775;42.678;26.324;2022-08-21T11:21:56;12.75;;;8.45;;
21235;SDS011;10775;42.678;26.324;2022-08-21T11:29:32;6.82;;;6.03;;
21235;SDS011;10775;42.678;26.324;2022-08-21T11:42:50;7.43;;;6.63;;
21235;SDS011;10775;42.678;26.324;2022-08-21T11:46:06;8.65;;;7.75;;
21235;SDS011;10775;42.678;26.324;2022-08-21T11:51:02;11.00;;;8.32;;
21235;SDS011;10775;42.678;26.324;2022-08-21T11:53:34;10.52;;;6.72;;
21235;SDS011;10775;42.678;26.324;2022-08-21T11:56:12;8.65;;;7.35;;
21235;SDS011;10775;42.678;26.324;2022-08-21T11:58:45;6.97;;;6.10;;
21235;SDS011;10775;42.678;26.324;2022-08-21T12:01:24;9.38;;;7.40;;
21235;SDS011;10775;42.678;26.324;2022-08-21T12:03:56;11.13;;;6.95;;
21235;SDS011;10775;42.678;26.324;2022-08-21T12:06:30;7.82;;;6.97;;
21235;SDS011;10775;42.678;26.324;2022-08-21T12:09:02;11.80;;;8.20;;
21235;SDS011;10775;42.678;26.324;2022-08-21T12:11:45;10.13;;;6.57;;
21235;SDS011;10775;42.678;26.324;2022-08-21T12:14:14;7.57;;;6.78;;
21235;SDS011;10775;42.678;26.324;2022-08-21T12:16:42;8.30;;;6.25;;
21235;SDS011;10775;42.678;26.324;2022-08-21T12:19:11;7.10;;;6.40;;
21235;SDS011;10775;42.678;26.324;2022-08-21T12:22:30;7.13;;;6.43;;
21235;SDS011;10775;42.678;26.324;2022-08-21T12:27:14;7.95;;;6.60;;
21235;SDS011;10775;42.678;26.324;2022-08-21T12:29:55;8.23;;;6.45;;
21235;SDS011;10775;42.678;26.324;2022-08-21T12:32:30;8.30;;;6.72;;
21235;SDS011;10775;42.678;26.324;2022-08-21T12:40:54;8.32;;;6.88;;
21235;SDS011;10775;42.678;26.324;2022-08-21T12:45:58;8.82;;;7.07;;
21235;SDS011;10775;42.678;26.324;2022-08-21T12:48:41;7.50;;;6.60;;
21235;SDS011;10775;42.678;26.324;2022-08-21T12:51:34;9.20;;;6.35;;
21235;SDS011;10775;42.678;26.324;2022-08-21T12:54:28;13.35;;;8.52;;
21235;SDS011;10775;42.678;26.324;2022-08-21T12:56:56;7.63;;;6.78;;
21235;SDS011;10775;42.678;26.324;2022-08-21T12:59:24;14.47;;;9.97;;
21235;SDS011;10775;42.678;26.324;2022-08-21T13:01:50;8.80;;;7.90;;
21235;SDS011;10775;42.678;26.324;2022-08-21T13:07:07;9.35;;;6.53;;
21235;SDS011;10775;42.678;26.324;2022-08-21T13:09:45;13.52;;;8.48;;
21235;SDS011;10775;42.678;26.324;2022-08-21T13:12:14;9.35;;;7.25;;
21235;SDS011;10775;42.678;26.324;2022-08-21T13:14:43;10.10;;;7.47;;
21235;SDS011;10775;42.678;26.324;2022-08-21T13:17:12;14.80;;;9.40;;
21235;SDS011;10775;42.678;26.324;2022-08-21T13:22:14;7.93;;;6.47;;
21235;SDS011;10775;42.678;26.324;2022-08-21T13:24:40;9.85;;;7.95;;
21235;SDS011;10775;42.678;26.324;2022-08-21T13:27:19;9.93;;;8.48;;
21235;SDS011;10775;42.678;26.324;2022-08-21T13:32:18;8.85;;;7.75;;
21235;SDS011;10775;42.678;26.324;2022-08-21T13:34:50;8.77;;;7.88;;
21235;SDS011;10775;42.678;26.324;2022-08-21T13:37:17;11.48;;;8.25;;
21235;SDS011;10775;42.678;26.324;2022-08-21T13:39:47;10.70;;;8.50;;
21235;SDS011;10775;42.678;26.324;2022-08-21T13:42:17;12.52;;;9.73;;
21235;SDS011;10775;42.678;26.324;2022-08-21T13:44:45;9.52;;;8.23;;
21235;SDS011;10775;42.678;26.324;2022-08-21T13:47:13;9.17;;;7.90;;
21235;SDS011;10775;42.678;26.324;2022-08-21T13:49:47;8.80;;;7.33;;
21235;SDS011;10775;42.678;26.324;2022-08-21T13:52:21;12.25;;;8.35;;
21235;SDS011;10775;42.678;26.324;2022-08-21T13:54:59;9.18;;;7.13;;
21235;SDS011;10775;42.678;26.324;2022-08-21T13:57:37;9.53;;;8.50;;
21235;SDS011;10775;42.678;26.324;2022-08-21T14:00:10;10.55;;;7.55;;
21235;SDS011;10775;42.678;26.324;2022-08-21T14:02:41;10.57;;;9.32;;
21235;SDS011;10775;42.678;26.324;2022-08-21T14:05:19;12.77;;;9.20;;
21235;SDS011;10775;42.678;26.324;2022-08-21T14:07:59;10.10;;;9.05;;
21235;SDS011;10775;42.678;26.324;2022-08-21T14:10:29;14.70;;;9.63;;
21235;SDS011;10775;42.678;26.324;2022-08-21T14:13:01;7.50;;;6.72;;
21235;SDS011;10775;42.678;26.324;2022-08-21T14:15:29;11.98;;;8.25;;
21235;SDS011;10775;42.678;26.324;2022-08-21T14:18:08;9.70;;;7.18;;
21235;SDS011;10775;42.678;26.324;2022-08-21T14:20:41;10.73;;;8.35;;
21235;SDS011;10775;42.678;26.324;2022-08-21T14:23:07;8.60;;;7.55;;
21235;SDS011;10775;42.678;26.324;2022-08-21T14:30:50;9.07;;;7.07;;
21235;SDS011;10775;42.678;26.324;2022-08-21T14:33:20;9.85;;;8.57;;
21235;SDS011;10775;42.678;26.324;2022-08-21T14:35:52;10.50;;;7.90;;
21235;SDS011;10775;42.678;26.324;2022-08-21T14:38:19;7.00;;;6.20;;
21235;SDS011;10775;42.678;26.324;2022-08-21T14:40:49;8.25;;;5.80;;
21235;SDS011;10775;42.678;26.324;2022-08-21T14:43:17;7.05;;;4.95;;
21235;SDS011;10775;42.678;26.324;2022-08-21T14:45:44;6.10;;;5.03;;
21235;SDS011;10775;42.678;26.324;2022-08-21T14:48:10;7.25;;;5.43;;
21235;SDS011;10775;42.678;26.324;2022-08-21T14:50:36;6.38;;;5.35;;
21235;SDS011;10775;42.678;26.324;2022-08-21T14:53:02;7.68;;;5.88;;
21235;SDS011;10775;42.678;26.324;2022-08-21T14:55:29;8.68;;;5.60;;
21235;SDS011;10775;42.678;26.324;2022-08-21T14:58:15;7.00;;;6.30;;
21235;SDS011;10775;42.678;26.324;2022-08-21T15:00:41;6.30;;;5.70;;
21235;SDS011;10775;42.678;26.324;2022-08-21T15:03:07;7.63;;;6.05;;
21235;SDS011;10775;42.678;26.324;2022-08-21T15:05:33;5.57;;;4.78;;
21235;SDS011;10775;42.678;26.324;2022-08-21T15:07:58;7.00;;;5.85;;
21235;SDS011;10775;42.678;26.324;2022-08-21T15:10:24;6.43;;;4.63;;
21235;SDS011;10775;42.678;26.324;2022-08-21T15:12:50;6.72;;;6.05;;
21235;SDS011;10775;42.678;26.324;2022-08-21T15:15:15;10.43;;;5.13;;
21235;SDS011;10775;42.678;26.324;2022-08-21T15:17:41;7.18;;;5.18;;
21235;SDS011;10775;42.678;26.324;2022-08-21T15:20:07;8.70;;;4.78;;
21235;SDS011;10775;42.678;26.324;2022-08-21T15:22:34;7.25;;;4.65;;
21235;SDS011;10775;42.678;26.324;2022-08-21T15:25:00;7.28;;;5.45;;
21235;SDS011;10775;42.678;26.324;2022-08-21T15:27:26;8.38;;;5.65;;
21235;SDS011;10775;42.678;26.324;2022-08-21T15:29:53;7.03;;;5.43;;
21235;SDS011;10775;42.678;26.324;2022-08-21T15:32:20;7.43;;;5.75;;
21235;SDS011;10775;42.678;26.324;2022-08-21T15:34:49;5.77;;;5.23;;
21235;SDS011;10775;42.678;26.324;2022-08-21T15:37:16;7.90;;;5.83;;
21235;SDS011;10775;42.678;26.324;2022-08-21T15:39:42;8.48;;;5.75;;
21235;SDS011;10775;42.678;26.324;2022-08-21T15:42:08;12.57;;;8.48;;
21235;SDS011;10775;42.678;26.324;2022-08-21T15:44:35;9.38;;;6.25;;
21235;SDS011;10775;42.678;26.324;2022-08-21T15:47:01;7.80;;;5.80;;
21235;SDS011;10775;42.678;26.324;2022-08-21T15:49:27;10.02;;;6.85;;
21235;SDS011;10775;42.678;26.324;2022-08-21T15:51:53;10.88;;;6.95;;
21235;SDS011;10775;42.678;26.324;2022-08-21T15:54:18;7.32;;;6.35;;
21235;SDS011;10775;42.678;26.324;2022-08-21T15:56:45;10.80;;;6.93;;
21235;SDS011;10775;42.678;26.324;2022-08-21T15:59:15;9.95;;;7.97;;
21235;SDS011;10775;42.678;26.324;2022-08-21T16:01:43;11.77;;;8.75;;
21235;SDS011;10775;42.678;26.324;2022-08-21T16:04:10;12.80;;;8.70;;
21235;SDS011;10775;42.678;26.324;2022-08-21T16:06:40;8.45;;;6.70;;
21235;SDS011;10775;42.678;26.324;2022-08-21T16:09:06;7.88;;;6.93;;
21235;SDS011;10775;42.678;26.324;2022-08-21T16:11:31;10.05;;;7.90;;
21235;SDS011;10775;42.678;26.324;2022-08-21T16:13:57;7.75;;;6.03;;